»·PEaware :: N95MW KFUL-KGCN

N95MW :: KFUL-KGCN

FLIGHT INFORMATION

Flight Status: Arrived
Operator: Privately registered:
United States
More flights under this callsign
Pilot: Anonymous 34893 (34893)
Aircraft: SOCATA TBM-900
(TBM9)
More flights by this aircraft type
Origin: KFUL Fullerton Mun
United States
Destination: KGCN Grand Canyon Natl Park
United States
More flights between these airports :: More routes between these airports
Route: PDZ HEC PGS
File this flight plan on PilotEdge
Remarks:
Altitude:
(Current/Filed)
17,500ft
Speed:
(Current/Filed)
250kts
Departed: 05-Apr-22 12:53 PM
Arrived: 05-Apr-22 02:10 PM
Distance/Time
Traveled:
313nm/1:17
Distance/Time
To Go:
Arrived

Flight Plot

Page will automatically refresh every two minutes.

Flight plan parsing failed; only flown route is shown


Map Options




Map Legend


Flown Route
Filed Route
Departure Airport
Arrival Airport
Navaid (VOR, NDB)
Fix

Horizontal Profiles

Position Reports

Time Latitude Longitude Heading Altitude Ground
Speed
05-Apr-22 12:46 33.871409 -117.978684 256 95ft 0kts
05-Apr-22 12:48 33.871409 -117.978684 256 95ft 0kts
05-Apr-22 12:49 33.871409 -117.978684 256 95ft 0kts
05-Apr-22 12:50 33.871991 -117.977801 76 95ft 10kts
05-Apr-22 12:50 33.872533 -117.974983 76 97ft 7kts
05-Apr-22 12:51 33.872583 -117.974837 53 97ft 1kts
05-Apr-22 12:52 33.870763 -117.986415 258 261ft 117kts
05-Apr-22 12:54 33.855240 -117.975332 79 1829ft 149kts
05-Apr-22 12:54 33.857571 -117.931715 78 2509ft 169kts
05-Apr-22 12:55 33.866232 -117.869657 76 2506ft 199kts
05-Apr-22 12:56 33.875871 -117.802921 76 2498ft 201kts
05-Apr-22 12:57 33.884439 -117.741227 76 2486ft 177kts
05-Apr-22 12:58 33.894066 -117.684308 76 2494ft 172kts
05-Apr-22 12:59 33.903175 -117.629844 76 4513ft 166kts
05-Apr-22 13:00 33.911549 -117.575729 76 6695ft 167kts
05-Apr-22 13:01 33.924278 -117.522654 41 8619ft 169kts
05-Apr-22 13:02 33.958060 -117.482348 40 10959ft 174kts
05-Apr-22 13:03 33.992665 -117.440923 39 13141ft 181kts
05-Apr-22 13:04 34.028933 -117.397430 37 15331ft 188kts
05-Apr-22 13:05 34.066522 -117.352300 36 17310ft 195kts
05-Apr-22 13:06 34.111109 -117.298884 38 17523ft 255kts
05-Apr-22 13:07 34.163880 -117.235218 38 17503ft 277kts
05-Apr-22 13:08 34.218732 -117.168996 39 17501ft 282kts
05-Apr-22 13:09 34.274245 -117.101878 39 17577ft 281kts
05-Apr-22 13:10 34.329479 -117.034901 39 17739ft 283kts
05-Apr-22 13:11 34.385293 -116.967125 39 17738ft 286kts
05-Apr-22 13:12 34.441393 -116.898864 39 17738ft 287kts
05-Apr-22 13:13 34.497744 -116.830160 39 17738ft 287kts
05-Apr-22 13:14 34.553833 -116.761637 39 17738ft 287kts
05-Apr-22 13:15 34.610594 -116.692175 40 17511ft 291kts
05-Apr-22 13:16 34.667085 -116.622853 40 17509ft 288kts
05-Apr-22 13:17 34.723191 -116.553887 40 17510ft 287kts
05-Apr-22 13:18 34.779189 -116.484915 40 17509ft 285kts
05-Apr-22 13:19 34.816080 -116.399641 66 17511ft 292kts
05-Apr-22 13:20 34.843282 -116.307569 66 17506ft 291kts
05-Apr-22 13:21 34.870797 -116.214798 67 17460ft 291kts
05-Apr-22 13:22 34.898117 -116.122270 66 17462ft 291kts
05-Apr-22 13:23 34.925452 -116.029470 66 17482ft 289kts
05-Apr-22 13:24 34.952394 -115.937730 66 17497ft 288kts
05-Apr-22 13:25 34.979393 -115.845486 66 17471ft 289kts
05-Apr-22 13:26 35.006286 -115.753300 66 17471ft 288kts
05-Apr-22 13:27 35.033166 -115.660854 66 17500ft 291kts
05-Apr-22 13:28 35.060393 -115.566919 66 17363ft 295kts
05-Apr-22 13:29 35.087495 -115.473080 66 17362ft 293kts
05-Apr-22 13:30 35.114492 -115.379315 66 17366ft 292kts
05-Apr-22 13:31 35.141387 -115.285111 67 16890ft 308kts
05-Apr-22 13:32 35.169675 -115.191938 64 17361ft 289kts
05-Apr-22 13:33 35.194920 -115.097585 65 17364ft 294kts
05-Apr-22 13:34 35.221937 -115.002936 66 17364ft 295kts
05-Apr-22 13:35 35.248841 -114.907906 66 17364ft 296kts
05-Apr-22 13:36 35.275764 -114.812434 64 17365ft 297kts
05-Apr-22 13:37 35.302666 -114.716810 64 17365ft 298kts
05-Apr-22 13:38 35.329491 -114.621048 64 17366ft 298kts
05-Apr-22 13:39 35.356365 -114.524787 64 17366ft 299kts
05-Apr-22 13:40 35.383146 -114.428527 64 17366ft 299kts
05-Apr-22 13:41 35.409926 -114.331935 65 17361ft 299kts
05-Apr-22 13:42 35.436512 -114.235611 65 17367ft 298kts
05-Apr-22 13:43 35.462966 -114.139588 65 17490ft 299kts
05-Apr-22 13:44 35.489556 -114.042651 65 17490ft 300kts
05-Apr-22 13:45 35.516152 -113.945340 65 17491ft 301kts
05-Apr-22 13:46 35.542637 -113.848091 65 17491ft 301kts
05-Apr-22 13:47 35.569072 -113.750676 65 17492ft 301kts
05-Apr-22 13:48 35.579735 -113.647566 85 17493ft 311kts
05-Apr-22 13:49 35.581597 -113.541976 72 17493ft 305kts
05-Apr-22 13:50 35.598067 -113.439849 72 17494ft 305kts
05-Apr-22 13:51 35.614684 -113.337285 73 17489ft 306kts
05-Apr-22 13:52 35.631319 -113.235021 73 17487ft 305kts
05-Apr-22 13:53 35.648366 -113.130519 72 16784ft 324kts
05-Apr-22 13:54 35.666527 -113.021002 72 15583ft 326kts
05-Apr-22 13:55 35.686953 -112.913700 67 14376ft 320kts
05-Apr-22 13:56 35.711724 -112.810126 67 13541ft 302kts
05-Apr-22 13:57 35.734418 -112.712953 67 12931ft 301kts
05-Apr-22 13:58 35.762899 -112.614781 63 11488ft 311kts
05-Apr-22 13:59 35.788731 -112.512822 86 9764ft 322kts
05-Apr-22 14:00 35.785766 -112.411997 68 9543ft 274kts
05-Apr-22 14:01 35.816617 -112.337712 45 9551ft 200kts
05-Apr-22 14:02 35.850372 -112.286425 37 9345ft 194kts
05-Apr-22 14:03 35.888729 -112.240451 24 9131ft 184kts
05-Apr-22 14:04 35.928607 -112.200227 40 8781ft 180kts
05-Apr-22 14:05 35.959133 -112.158207 27 8203ft 151kts
05-Apr-22 14:06 35.989695 -112.139211 11 7700ft 107kts
05-Apr-22 14:07 35.976734 -112.120134 225 7289ft 105kts
05-Apr-22 14:08 35.957274 -112.141795 220 6602ft 73kts
05-Apr-22 14:09 35.953695 -112.143816 40 6591ft 6kts
05-Apr-22 14:10 35.956399 -112.140943 41 6602ft 13kts
05-Apr-22 14:11 35.957541 -112.139091 40 6608ft 0kts
05-Apr-22 14:12 35.957541 -112.139091 40 6608ft 0kts

Navigation Log

Ident Type
Flight plan parsing failed, navigation log unavailable